Main page
METAR-TAF:

METAR-TAF

Airports :

Shannon Airport

Shannon, Ireland

latitude: 52-42N, longitude: 008-55W, elevation: 14 m

Current weather observation

The report was made 29 minutes ago, at 19:30 UTC
Wind 12 kt from the West/Northwest
Temperature 15°C
Humidity 67%
Pressure 1008 hPa
Visibility 10 km or more
Few clouds at a height of 2300 ft

METAR: EINN 281930Z 30012KT 9999 FEW023 15/09 Q1008 NOSIG

Time: 20:59 (19:59 UTC)

Forecast

The report was made 2 hours and 59 minutes ago, at 17:00 UTC
Forecast valid from 28 at 18 UTC to 29 at 18 UTC
Wind 13 kt from the West
Visibility 10 km or more
Few clouds at a height of 2500 ft
Temporary
from 28 at 18 UTC to 28 at 20 UTC
Wind 15 kt from the West/Northwest with gusts up to 27 kt
Becoming
from 29 at 02 UTC to 29 at 04 UTC
Wind 5 kt from the West
Becoming
from 29 at 08 UTC to 29 at 10 UTC
Wind 10 kt from the Northwest

TAF: EINN 281700Z 2818/2918 28013KT 9999 FEW025 TEMPO 2818/2820 29015G27KT BECMG 2902/2904 26005KT BECMG 2908/2910 31010KT

Weather observations and forecasts of more than 4000 airports (METAR and TAF reports).

The available stations are represented by yellow and red dots on the map.

Hover mouse over dot to see the name of the station.

Then click to see weather observations and forecasts.

To change the map : click on the green buttons with a black cross to zoom in, on the green button with a dash to zoom out, or on the green arrows for adjacent maps.


METAR-TAF: